Time;durP1;ratioP1;P1;durP2;ratioP2;P2;SDS_P1;SDS_P2;PMS_P1;PMS_P2;Temp;Humidity;BMP_temperature;BMP_pressure;BME280_temperature;BME280_humidity;BME280_pressure;Samples;Min_cycle;Max_cycle;Signal;HPM_P1;HPM_P2
2021/04/16 00:02:02;;;;;;;33.65;19.70;;;;;;;7.85;69.31;100179.91;3606561;39;20407;-78
2021/04/16 00:04:29;;;;;;;34.92;19.38;;;;;;;7.86;69.34;100175.53;3606818;39;20030;-78
2021/04/16 00:07:07;;;;;;;30.35;19.30;;;;;;;7.83;69.20;100175.63;3648202;39;20125;-78
2021/04/16 00:09:47;;;;;;;33.75;19.45;;;;;;;7.84;69.55;100177.34;3606984;39;20435;-78
2021/04/16 00:12:26;;;;;;;32.10;18.67;;;;;;;7.86;69.41;100172.94;3617372;39;20410;-77
2021/04/16 00:15:05;;;;;;;26.48;17.73;;;;;;;7.85;69.23;100173.84;3607014;39;20399;-78
2021/04/16 00:17:31;;;;;;;26.90;16.33;;;;;;;7.85;69.26;100171.22;3606760;39;20288;-76
2021/04/16 00:20:13;;;;;;;28.05;17.65;;;;;;;7.83;69.47;100166.06;3648456;39;20114;-78
2021/04/16 00:22:39;;;;;;;26.77;15.95;;;;;;;7.82;69.32;100166.94;3647868;39;20049;-78
2021/04/16 00:25:08;;;;;;;26.95;15.52;;;;;;;7.80;69.17;100167.91;3647767;39;20382;-77
2021/04/16 00:27:34;;;;;;;28.50;15.75;;;;;;;7.82;69.35;100158.25;3647540;39;20053;-78
2021/04/16 00:30:14;;;;;;;24.98;15.48;;;;;;;7.83;69.24;100160.84;3617865;39;20398;-77
2021/04/16 00:32:52;;;;;;;21.98;14.63;;;;;;;7.81;69.36;100162.63;3619235;39;20386;-78
2021/04/16 00:35:30;;;;;;;22.10;14.70;;;;;;;7.79;69.25;100161.81;3620060;39;20398;-77
2021/04/16 00:38:10;;;;;;;25.00;13.75;;;;;;;7.76;69.28;100163.66;3597762;39;20404;-77
2021/04/16 00:40:57;;;;;;;26.70;14.27;;;;;;;7.76;69.23;100161.06;3607067;39;20410;-79
2021/04/16 00:43:36;;;;;;;22.80;14.35;;;;;;;7.77;69.42;100152.34;3617585;39;20397;-79
2021/04/16 00:46:22;;;;;;;21.10;13.70;;;;;;;7.76;69.25;100161.06;3638052;39;20415;-77
2021/04/16 00:48:52;;;;;;;24.88;13.15;;;;;;;7.79;69.27;100166.19;3637470;39;20035;-76
2021/04/16 00:51:24;;;;;;;19.55;11.75;;;;;;;7.77;69.14;100165.38;3637133;39;20103;-77
2021/04/16 00:53:51;;;;;;;18.58;12.82;;;;;;;7.78;68.98;100169.69;3637402;39;20034;-76
2021/04/16 00:56:29;;;;;;;21.95;12.43;;;;;;;7.75;69.40;100167.19;3627435;39;20413;-76
2021/04/16 00:58:55;;;;;;;17.02;11.68;;;;;;;7.75;69.45;100167.19;3627019;39;20399;-76
2021/04/16 01:01:23;;;;;;;23.17;11.93;;;;;;;7.76;69.25;100168.88;3627320;39;20053;-76
2021/04/16 01:03:49;;;;;;;17.27;10.50;;;;;;;7.80;69.15;100171.34;3630928;39;20360;-79
2021/04/16 01:06:16;;;;;;;20.17;11.25;;;;;;;7.76;69.37;100168.88;3638306;39;20039;-77
2021/04/16 01:08:43;;;;;;;17.23;10.95;;;;;;;7.74;69.18;100165.47;3634781;39;20050;-76
2021/04/16 01:11:09;;;;;;;19.13;11.20;;;;;;;7.70;69.26;100164.66;3628253;39;20039;-77
2021/04/16 01:13:39;;;;;;;15.50;10.82;;;;;;;7.67;69.58;100163.91;3627167;39;20410;-77
2021/04/16 01:16:10;;;;;;;19.60;12.23;;;;;;;7.69;69.44;100167.31;3627169;39;20038;-79
2021/04/16 01:18:40;;;;;;;18.67;11.90;;;;;;;7.73;69.30;100168.97;3627393;39;20028;-79
2021/04/16 01:21:09;;;;;;;22.98;11.63;;;;;;;7.67;69.51;100151.72;3627869;39;20038;-77
2021/04/16 01:23:45;;;;;;;20.75;12.07;;;;;;;7.58;69.77;100160.66;3627040;39;20027;-80
2021/04/16 01:26:16;;;;;;;19.50;10.57;;;;;;;7.56;69.95;100154.63;3627804;39;20027;-78
2021/04/16 01:28:42;;;;;;;;;;;;;;;7.68;69.70;100144.75;3627932;39;20081;-78
2021/04/16 01:31:12;;;;;;;14.40;9.48;;;;;;;7.48;70.01;100151.38;3635204;39;19942;-78
2021/04/16 01:33:40;;;;;;;18.70;11.32;;;;;;;7.41;70.21;100135.94;3634577;39;20031;-77
2021/04/16 01:36:11;;;;;;;20.42;10.65;;;;;;;7.40;70.27;100142.06;3627765;39;20068;-79
2021/04/16 01:38:39;;;;;;;16.23;10.18;;;;;;;7.39;70.21;100141.19;3626883;39;20031;-80
2021/04/16 01:41:05;;;;;;;17.08;11.05;;;;;;;7.40;70.53;100139.44;3627542;39;20043;-80
2021/04/16 01:43:35;;;;;;;19.45;11.02;;;;;;;7.39;70.66;100140.34;3626689;39;20115;-76
2021/04/16 01:46:03;;;;;;;16.88;10.18;;;;;;;7.38;70.60;100139.50;3627447;39;20042;-78
2021/04/16 01:48:38;;;;;;;15.70;9.98;;;;;;;7.36;70.46;100136.06;3626746;39;20035;-79
2021/04/16 01:51:06;;;;;;;16.67;10.23;;;;;;;7.41;70.63;100142.00;3627590;39;20266;-79
2021/04/16 01:53:32;;;;;;;16.25;9.48;;;;;;;7.38;70.44;100139.50;3626801;39;20119;-79
2021/04/16 01:56:11;;;;;;;16.50;9.50;;;;;;;7.32;70.71;100143.13;3637852;39;20412;-78
2021/04/16 01:58:49;;;;;;;17.10;10.18;;;;;;;7.29;70.77;100139.75;3607540;39;20414;-80
2021/04/16 02:01:27;;;;;;;15.95;10.32;;;;;;;7.27;70.82;100139.75;3627144;39;20408;-79
2021/04/16 02:03:54;;;;;;;17.52;10.68;;;;;;;7.27;70.68;100142.38;3626942;39;20513;-79
2021/04/16 02:06:20;;;;;;;20.65;10.27;;;;;;;7.29;70.71;100134.53;3628482;39;20031;-80
2021/04/16 02:09:00;;;;;;;14.65;9.38;;;;;;;7.29;70.76;100132.78;3628281;39;20417;-78
2021/04/16 02:11:40;;;;;;;18.50;9.82;;;;;;;7.31;70.77;100119.69;3648342;39;20753;-77
2021/04/16 02:14:08;;;;;;;19.65;10.80;;;;;;;7.36;70.64;100117.81;3648313;39;20402;-77
2021/04/16 02:16:34;;;;;;;18.60;11.23;;;;;;;7.38;70.59;100109.94;3647804;39;20307;-78
2021/04/16 02:19:01;;;;;;;16.77;11.25;;;;;;;7.33;70.58;100112.69;3647821;39;20022;-77
2021/04/16 02:21:27;;;;;;;17.92;11.10;;;;;;;7.33;70.82;100112.69;3648655;39;20111;-79
2021/04/16 02:23:53;;;;;;;20.65;10.63;;;;;;;7.34;70.73;100111.78;3648060;39;20122;-78
2021/04/16 02:26:20;;;;;;;19.02;11.23;;;;;;;7.33;70.83;100116.16;3648850;39;20034;-80
2021/04/16 02:28:47;;;;;;;21.88;11.10;;;;;;;7.32;70.81;100118.78;3648086;39;20034;-79
2021/04/16 02:31:14;;;;;;;15.35;10.38;;;;;;;7.32;70.84;100117.03;3648872;39;20042;-78
2021/04/16 02:33:42;;;;;;;19.08;10.32;;;;;;;7.37;70.68;100108.22;3648524;39;20399;-78
2021/04/16 02:36:09;;;;;;;18.63;10.80;;;;;;;7.39;70.53;100109.91;3649127;39;20072;-80
2021/04/16 02:38:36;;;;;;;16.67;10.43;;;;;;;7.39;70.66;100112.50;3648793;39;20030;-78
2021/04/16 02:41:03;;;;;;;16.75;10.20;;;;;;;7.38;70.85;100115.16;3649150;39;20459;-79
2021/04/16 02:43:30;;;;;;;17.60;10.13;;;;;;;7.34;70.52;100110.03;3648914;39;20410;-78
2021/04/16 02:45:57;;;;;;;17.50;10.98;;;;;;;7.35;70.81;100113.50;3649881;39;20041;-79
2021/04/16 02:48:24;;;;;;;18.75;9.93;;;;;;;7.36;70.55;100122.16;3650729;39;20082;-80
2021/04/16 02:51:03;;;;;;;16.98;9.80;;;;;;;7.38;70.73;100113.41;3630537;39;20432;-78
2021/04/16 02:53:29;;;;;;;15.40;10.32;;;;;;;7.37;70.61;100111.69;3628687;39;20057;-77
2021/04/16 02:55:56;;;;;;;16.85;10.45;;;;;;;7.36;70.60;100102.16;3631636;39;20035;-78
2021/04/16 02:58:23;;;;;;;16.48;9.60;;;;;;;7.36;70.70;100117.81;3633898;39;20035;-79
2021/04/16 03:00:49;;;;;;;12.85;8.82;;;;;;;7.36;70.41;100115.19;3631010;39;20075;-78
2021/04/16 03:03:15;;;;;;;11.98;8.35;;;;;;;7.34;70.42;100119.59;3629444;39;20107;-77
2021/04/16 03:05:42;;;;;;;15.80;8.75;;;;;;;7.37;70.49;100114.31;3627798;39;20027;-78
2021/04/16 03:08:09;;;;;;;15.38;9.75;;;;;;;7.39;70.46;100120.34;3628959;39;20039;-78
2021/04/16 03:10:37;;;;;;;14.82;8.95;;;;;;;7.39;70.51;100124.69;3628525;39;20031;-79
2021/04/16 03:13:04;;;;;;;16.38;9.57;;;;;;;7.38;70.37;100116.00;3627783;39;20054;-79
2021/04/16 03:15:32;;;;;;;16.50;9.10;;;;;;;7.36;70.26;100120.41;3628094;39;20057;-81
2021/04/16 03:18:02;;;;;;;14.63;9.15;;;;;;;7.32;70.36;100119.66;3627861;39;20303;-79
2021/04/16 03:20:40;;;;;;;16.10;9.00;;;;;;;7.35;70.47;100118.72;3617284;39;20401;-70
2021/04/16 03:23:18;;;;;;;14.73;8.88;;;;;;;7.38;70.37;100123.84;3617305;31;20390;-72
2021/04/16 03:25:45;;;;;;;13.68;8.65;;;;;;;7.38;70.20;100118.63;3616855;39;20035;-74
2021/04/16 03:28:23;;;;;;;15.43;8.48;;;;;;;7.37;70.27;100114.31;3617171;39;20406;-72
2021/04/16 03:31:01;;;;;;;15.98;9.07;;;;;;;7.38;70.38;100118.63;3634514;39;747335;-73
2021/04/16 03:33:40;;;;;;;15.38;8.68;;;;;;;7.42;70.18;100116.78;3637866;39;20416;-72
2021/04/16 03:36:07;;;;;;;14.93;8.48;;;;;;;7.45;70.20;100114.94;3637175;39;20033;-70
2021/04/16 03:38:46;;;;;;;15.00;8.95;;;;;;;7.43;70.24;100124.56;3627478;31;20388;-70
2021/04/16 03:41:13;;;;;;;17.38;9.35;;;;;;;7.39;70.17;100122.94;3626848;39;20111;-70
2021/04/16 03:43:51;;;;;;;15.73;8.95;;;;;;;7.41;70.03;100131.56;3617503;39;20401;-71
2021/04/16 03:46:17;;;;;;;15.27;9.82;;;;;;;7.42;70.21;100117.63;3616676;39;20312;-71
2021/04/16 03:48:55;;;;;;;14.13;8.93;;;;;;;7.40;70.42;100114.22;3648321;39;20400;-70
2021/04/16 03:51:21;;;;;;;16.17;8.68;;;;;;;7.41;70.27;100107.25;3647624;39;20041;-70
2021/04/16 03:53:48;;;;;;;11.30;7.95;;;;;;;7.39;70.31;100112.50;3648513;39;20037;-71
2021/04/16 03:56:26;;;;;;;13.45;8.23;;;;;;;7.34;70.39;100109.19;3607179;39;20403;-71
2021/04/16 03:58:52;;;;;;;14.82;8.10;;;;;;;7.35;70.38;100118.72;3606673;39;20036;-70
2021/04/16 04:01:18;;;;;;;12.88;7.90;;;;;;;7.33;70.60;100118.75;3607483;39;20040;-71
2021/04/16 04:03:45;;;;;;;12.38;8.18;;;;;;;7.33;70.41;100110.06;3606429;39;20408;-71
2021/04/16 04:06:11;;;;;;;14.25;8.13;;;;;;;7.33;70.48;100115.28;3607195;39;20031;-71
2021/04/16 04:08:37;;;;;;;11.80;7.88;;;;;;;7.33;70.29;100112.69;3606467;39;20044;-71
2021/04/16 04:11:04;;;;;;;12.85;8.38;;;;;;;7.33;70.53;100115.28;3606277;39;20108;-71
2021/04/16 04:13:31;;;;;;;17.52;9.00;;;;;;;7.35;70.39;100110.88;3606262;39;20300;-71
2021/04/16 04:15:58;;;;;;;13.45;8.80;;;;;;;7.32;70.37;100118.78;3607097;39;20044;-70
2021/04/16 04:18:24;;;;;;;12.20;8.20;;;;;;;7.33;70.17;100123.13;3606518;39;20121;-71
2021/04/16 04:21:04;;;;;;;12.02;8.00;;;;;;;7.33;70.08;100121.34;3607017;39;20415;-71
2021/04/16 04:23:30;;;;;;;11.38;8.10;;;;;;;7.32;70.40;100114.44;3606707;39;20036;-70
2021/04/16 04:25:57;;;;;;;12.98;8.77;;;;;;;7.36;70.30;100112.59;3606381;39;20024;-70
2021/04/16 04:28:23;;;;;;;16.35;8.15;;;;;;;7.37;69.97;100118.66;3606448;39;20072;-70
2021/04/16 04:30:49;;;;;;;10.75;7.53;;;;;;;7.29;70.40;100114.53;3607270;39;20032;-70
2021/04/16 04:33:16;;;;;;;9.63;6.93;;;;;;;7.24;70.60;100118.97;3606514;39;20036;-71
2021/04/16 04:35:54;;;;;;;9.88;7.00;;;;;;;7.21;70.41;100126.88;3648152;39;20367;-71
2021/04/16 04:38:21;;;;;;;12.55;8.45;;;;;;;7.19;70.72;100120.00;3648097;39;20030;-70
2021/04/16 04:40:58;;;;;;;24.75;12.85;;;;;;;7.17;70.52;100122.66;3633426;39;785442;-71
2021/04/16 04:43:35;;;;;;;13.70;9.13;;;;;;;7.17;70.74;100124.41;3607253;39;20403;-71
2021/04/16 04:46:02;;;;;;;11.02;8.38;;;;;;;7.19;70.65;100120.00;3606600;39;20360;-71
2021/04/16 04:48:34;;;;;;;13.55;8.45;;;;;;;7.21;70.42;100124.28;3607723;39;20036;-71
2021/04/16 04:51:17;;;;;;;11.75;8.70;;;;;;;7.23;70.44;100121.63;3627883;31;20412;-71
2021/04/16 04:53:56;;;;;;;12.32;8.50;;;;;;;7.26;70.20;100116.34;3607375;39;20387;-71
2021/04/16 04:56:22;;;;;;;16.17;11.18;;;;;;;7.28;70.38;100124.97;3615194;39;20036;-71
2021/04/16 04:59:01;;;;;;;13.57;9.13;;;;;;;7.31;70.33;100119.69;3634603;39;20375;-71
2021/04/16 05:01:27;;;;;;;16.77;8.20;;;;;;;7.27;70.34;100123.25;3627233;39;20023;-71
2021/04/16 05:03:54;;;;;;;16.02;9.27;;;;;;;7.24;70.51;100120.75;3628048;39;20196;-70
2021/04/16 05:06:20;;;;;;;14.40;9.75;;;;;;;7.22;70.50;100126.00;3627017;39;20053;-70
2021/04/16 05:08:58;;;;;;;14.25;9.15;;;;;;;7.19;70.71;100122.63;3648177;39;20343;-71
2021/04/16 05:11:25;;;;;;;15.00;9.07;;;;;;;7.17;70.95;100122.66;3648141;39;20027;-71
2021/04/16 05:13:52;;;;;;;13.73;8.98;;;;;;;7.20;70.64;100127.78;3648274;39;20045;-70
2021/04/16 05:16:18;;;;;;;13.15;7.95;;;;;;;7.28;70.35;100127.56;3643097;39;20031;-70
2021/04/16 05:18:46;;;;;;;13.50;8.98;;;;;;;7.34;70.17;100119.59;3644090;39;20026;-69
2021/04/16 05:21:25;;;;;;;15.18;9.18;;;;;;;7.31;70.30;100130.97;3627971;39;771151;-71
2021/04/16 05:24:06;;;;;;;14.15;8.82;;;;;;;7.22;70.42;100125.13;3627193;39;20401;-70
2021/04/16 05:26:32;;;;;;;16.65;9.38;;;;;;;7.19;70.61;100130.44;3618489;39;20042;-70
2021/04/16 05:28:59;;;;;;;17.52;9.48;;;;;;;7.20;70.55;100133.00;3616767;39;20042;-70
2021/04/16 05:31:25;;;;;;;14.75;8.80;;;;;;;7.24;70.42;100131.16;3616907;39;20043;-70
2021/04/16 05:33:52;;;;;;;17.75;8.98;;;;;;;7.29;70.26;100137.13;3617164;39;20114;-70
2021/04/16 05:36:30;;;;;;;13.07;9.10;;;;;;;7.31;70.54;100140.56;3609321;39;20812;-70
2021/04/16 05:38:57;;;;;;;16.77;8.88;;;;;;;7.25;70.46;100135.47;3599090;39;20077;-70
2021/04/16 05:41:23;;;;;;;14.23;10.13;;;;;;;7.24;70.55;100128.56;3596809;39;20040;-71
2021/04/16 05:43:50;;;;;;;19.38;10.57;;;;;;;7.19;70.85;100128.69;3595201;39;20416;-72
2021/04/16 05:46:28;;;;;;;16.75;10.40;;;;;;;7.20;70.84;100132.16;3607501;39;20422;-71
2021/04/16 05:49:07;;;;;;;15.52;9.45;;;;;;;7.23;70.69;100126.84;3619872;31;20795;-71
2021/04/16 05:51:34;;;;;;;17.30;8.45;;;;;;;7.25;70.71;100125.91;3614547;39;20023;-73
2021/04/16 05:54:12;;;;;;;15.23;8.98;;;;;;;7.26;70.88;100121.53;3627228;31;20409;-71
2021/04/16 05:56:50;;;;;;;17.77;9.57;;;;;;;7.37;70.35;100124.72;3592408;39;20410;-71
2021/04/16 05:59:16;;;;;;;15.18;9.65;;;;;;;7.42;70.46;100128.06;3585571;40;20036;-73
2021/04/16 06:01:56;;;;;;;18.33;10.50;;;;;;;7.38;70.65;100113.41;3614240;39;20410;-72
2021/04/16 06:04:25;;;;;;;18.55;10.13;;;;;;;7.41;70.65;100121.13;3614355;39;20046;-72
2021/04/16 06:06:51;;;;;;;18.58;11.30;;;;;;;7.48;70.20;100117.44;3613142;39;20063;-71
2021/04/16 06:09:30;;;;;;;17.17;11.68;;;;;;;7.52;70.29;100118.25;3627356;39;20361;-71
2021/04/16 06:12:26;;;;;;;16.88;10.25;;;;;;;7.67;69.79;100122.16;3611922;39;20403;-71
2021/04/16 06:14:52;;;;;;;14.45;9.45;;;;;;;7.77;69.53;100119.25;3605418;39;20051;-71
2021/04/16 06:17:31;;;;;;;16.05;9.73;;;;;;;7.87;69.13;100119.84;3607914;39;20389;-74
2021/04/16 06:20:11;;;;;;;14.55;9.30;;;;;;;7.95;69.11;100112.66;3610269;39;20383;-72
2021/04/16 06:22:51;;;;;;;17.38;8.88;;;;;;;7.99;68.98;100110.78;3545275;40;20394;-71
2021/04/16 06:25:33;;;;;;;18.60;10.60;;;;;;;8.05;68.68;100116.69;3611590;39;20417;-72
2021/04/16 06:28:01;;;;;;;19.05;9.85;;;;;;;8.14;68.64;100111.19;3601315;39;20042;-72
2021/04/16 06:30:40;;;;;;;15.25;9.77;;;;;;;8.21;68.32;100104.88;3598967;39;20435;-71
2021/04/16 06:33:21;;;;;;;14.38;9.35;;;;;;;8.19;68.44;100111.91;3587612;39;20179;-71
2021/04/16 06:35:50;;;;;;;10.02;8.05;;;;;;;8.21;68.27;100107.47;3585785;40;20048;-73
2021/04/16 06:38:20;;;;;;;15.00;8.52;;;;;;;8.29;68.40;100111.59;3583148;40;20122;-72
2021/04/16 06:41:04;;;;;;;15.95;9.63;;;;;;;8.35;68.02;100106.25;3585559;40;20060;-74
2021/04/16 06:43:41;;;;;;;16.63;9.20;;;;;;;8.39;67.77;100102.63;3585934;40;20073;-72
2021/04/16 06:46:13;;;;;;;18.48;8.68;;;;;;;8.49;67.50;100101.41;3578425;40;20541;-71
2021/04/16 06:48:40;;;;;;;11.13;7.78;;;;;;;8.59;67.54;100109.84;3581052;40;20036;-74
2021/04/16 06:51:07;;;;;;;15.23;8.52;;;;;;;8.70;67.04;100103.34;3580926;40;20033;-71
2021/04/16 06:53:45;;;;;;;11.25;7.30;;;;;;;8.74;66.96;100098.84;3580998;40;20037;-72
2021/04/16 06:56:14;;;;;;;13.98;8.95;;;;;;;8.84;66.92;100105.50;3581073;40;20041;-72
2021/04/16 06:58:50;;;;;;;13.65;8.23;;;;;;;8.88;66.56;100103.63;3582024;40;20033;-72
2021/04/16 07:01:25;;;;;;;14.95;8.23;;;;;;;8.95;66.58;100110.34;3581517;40;20041;-70
2021/04/16 07:04:11;;;;;;;9.57;6.80;;;;;;;9.00;66.27;100101.47;3581807;40;20353;-70
2021/04/16 07:06:38;;;;;;;11.82;8.35;;;;;;;9.13;66.02;100107.97;3583162;40;20287;-71
2021/04/16 07:09:09;;;;;;;14.02;7.93;;;;;;;9.18;65.97;100113.06;3582367;40;20127;-71
2021/04/16 07:11:39;;;;;;;12.60;9.60;;;;;;;9.18;66.05;100109.59;3582713;40;20390;-72
2021/04/16 07:14:12;;;;;;;14.23;8.55;;;;;;;9.19;65.76;100114.75;3580792;40;20017;-73
2021/04/16 07:16:39;;;;;;;14.18;9.50;;;;;;;9.28;65.79;100119.66;3583843;40;20121;-74
2021/04/16 07:19:10;;;;;;;12.93;7.90;;;;;;;9.25;65.73;100111.94;3583718;40;20123;-73
2021/04/16 07:21:36;;;;;;;14.50;8.63;;;;;;;9.32;65.71;100109.94;3582808;40;20025;-72
2021/04/16 07:24:06;;;;;;;9.95;7.28;;;;;;;9.35;65.43;100122.91;3585013;40;20129;-73
2021/04/16 07:26:38;;;;;;;12.88;6.93;;;;;;;9.33;65.44;100115.13;3582264;40;20029;-72
2021/04/16 07:29:05;;;;;;;14.45;8.23;;;;;;;9.32;65.47;100113.41;3581055;40;20109;-72
2021/04/16 07:31:49;;;;;;;10.07;7.30;;;;;;;9.29;65.70;100108.28;3582333;40;20310;-72
2021/04/16 07:34:29;;;;;;;10.85;8.10;;;;;;;9.33;65.36;100115.13;3583478;40;20040;-77
2021/04/16 07:36:59;;;;;;;11.27;7.05;;;;;;;9.34;65.16;100111.59;3583133;40;20063;-77
2021/04/16 07:39:30;;;;;;;14.02;8.90;;;;;;;9.36;65.15;100111.53;3584559;40;20033;-77
2021/04/16 07:42:13;;;;;;;16.65;8.68;;;;;;;9.37;65.40;100119.34;3575947;40;20053;-79
2021/04/16 07:44:42;;;;;;;13.13;8.30;;;;;;;9.40;65.06;100121.84;3577756;40;20037;-79
2021/04/16 07:47:23;;;;;;;17.15;8.35;;;;;;;9.32;65.19;100117.78;3576965;40;20037;-78
2021/04/16 07:49:58;;;;;;;16.93;8.80;;;;;;;9.37;65.01;100121.09;3576361;40;20044;-79
2021/04/16 07:52:30;;;;;;;15.98;9.93;;;;;;;9.47;65.06;100123.34;3576566;40;20147;-78
2021/04/16 07:55:19;;;;;;;16.70;10.02;;;;;;;9.47;65.04;100125.94;3574941;40;20049;-77
2021/04/16 07:58:04;;;;;;;13.25;8.88;;;;;;;9.44;64.86;100123.44;3575611;40;20037;-76
2021/04/16 08:00:33;;;;;;;15.43;8.35;;;;;;;9.40;64.96;100127.09;3575238;40;20034;-76
2021/04/16 08:03:15;;;;;;;11.10;8.40;;;;;;;9.41;65.06;100130.56;3576960;40;20444;-77
2021/04/16 08:05:43;;;;;;;;;;;;;;;9.59;64.61;100129.06;3574321;40;20309;-76
2021/04/16 08:08:13;;;;;;;14.48;8.18;;;;;;;9.57;64.36;100133.47;3576611;40;20254;-74
2021/04/16 08:10:40;;;;;;;18.00;9.13;;;;;;;9.68;64.17;100133.94;3576759;40;20126;-75
2021/04/16 08:13:10;;;;;;;15.25;8.40;;;;;;;9.70;64.18;100130.34;3578204;40;20041;-75
2021/04/16 08:15:37;;;;;;;17.45;10.00;;;;;;;9.71;64.17;100125.97;3587397;40;20053;-75
2021/04/16 08:18:20;;;;;;;13.23;8.68;;;;;;;9.89;63.79;100129.69;3577231;40;20081;-75
2021/04/16 08:21:00;;;;;;;13.50;8.95;;;;;;;9.92;63.97;100133.03;3573721;40;20061;-76
2021/04/16 08:23:30;;;;;;;11.88;7.80;;;;;;;9.81;64.20;100129.97;3577165;40;20041;-74
2021/04/16 08:25:58;;;;;;;19.75;11.32;;;;;;;9.88;64.00;100123.59;3576853;40;20406;-75
2021/04/16 08:28:30;;;;;;;14.05;7.65;;;;;;;9.98;63.57;100119.69;3573637;40;20305;-75
2021/04/16 08:31:03;;;;;;;14.45;8.00;;;;;;;10.09;63.49;100128.00;3574515;40;20121;-77
2021/04/16 08:33:37;;;;;;;10.40;6.93;;;;;;;10.27;62.74;100120.41;3576421;40;20382;-75
2021/04/16 08:36:15;;;;;;;12.10;7.47;;;;;;;10.19;62.90;100128.50;3574937;40;20059;-76
2021/04/16 08:38:51;;;;;;;13.02;8.07;;;;;;;9.97;63.52;100112.75;3578035;40;20033;-76
2021/04/16 08:41:18;;;;;;;12.35;8.15;;;;;;;10.02;63.20;100123.94;3576133;40;20407;-78
2021/04/16 08:43:48;;;;;;;11.43;8.32;;;;;;;9.93;63.48;100126.88;3575832;40;20045;-76
2021/04/16 08:46:26;;;;;;;11.23;7.75;;;;;;;9.91;63.58;100123.47;3576448;40;20045;-75
2021/04/16 08:48:55;;;;;;;9.73;7.32;;;;;;;10.12;62.82;100128.81;3576924;40;20037;-76
2021/04/16 08:51:26;;;;;;;12.27;7.75;;;;;;;9.96;62.96;100137.22;3574947;40;20395;-76
2021/04/16 08:54:00;;;;;;;12.38;7.93;;;;;;;9.95;63.21;100135.53;3575990;40;20033;-76
2021/04/16 08:56:30;;;;;;;12.15;7.45;;;;;;;9.84;63.37;100127.25;3575205;40;20081;-75
2021/04/16 08:58:56;;;;;;;12.27;7.00;;;;;;;9.80;63.21;100130.88;3574613;40;20040;-75
2021/04/16 09:01:30;;;;;;;12.10;7.80;;;;;;;9.75;63.51;100133.66;3573969;40;20116;-75
2021/04/16 09:04:13;;;;;;;11.35;6.97;;;;;;;9.67;63.40;100134.84;3575141;40;20033;-72
2021/04/16 09:06:47;;;;;;;11.45;7.18;;;;;;;9.59;63.49;100134.28;3575690;40;20081;-74
2021/04/16 09:09:35;;;;;;;29.42;13.13;;;;;;;9.50;63.62;100130.22;3578237;40;20044;-74
2021/04/16 09:12:01;;;;;;;11.75;8.35;;;;;;;9.41;63.83;100126.19;3574860;40;20040;-76
2021/04/16 09:15:04;;;;;;;16.58;8.07;;;;;;;9.39;64.01;100121.91;3576001;40;20470;-76
2021/04/16 09:18:09;;;;;;;11.90;7.50;;;;;;;9.43;63.85;100129.59;3579896;40;20045;-75
2021/04/16 09:21:30;;;;;;;16.35;8.00;;;;;;;9.40;63.82;100127.09;3575449;40;20112;-75
2021/04/16 09:24:11;;;;;;;12.80;8.32;;;;;;;9.44;63.82;100133.06;3544384;40;20997;-75
2021/04/16 09:27:14;;;;;;;13.13;8.38;;;;;;;9.48;63.61;100132.03;3545231;40;20460;-76
2021/04/16 09:29:48;;;;;;;12.07;7.82;;;;;;;9.45;63.74;100137.38;3523207;40;20512;-76
2021/04/16 09:32:50;;;;;;;11.55;7.70;;;;;;;9.38;63.86;100135.91;3568948;40;20410;-78
2021/04/16 09:35:50;;;;;;;16.65;8.85;;;;;;;9.37;63.88;100135.06;3576058;40;20033;-76
2021/04/16 09:38:36;;;;;;;14.93;8.32;;;;;;;9.11;64.46;100135.94;3575102;40;20045;-77
2021/04/16 09:41:35;;;;;;;15.32;9.48;;;;;;;9.02;65.23;100135.41;3591147;39;20040;-72
2021/04/16 09:44:51;;;;;;;13.88;8.95;;;;;;;9.19;64.65;100127.84;3575252;40;20060;-74
2021/04/16 09:47:47;;;;;;;20.23;10.40;;;;;;;9.21;64.61;100128.63;3552908;40;20052;-73
2021/04/16 09:50:33;;;;;;;11.65;8.13;;;;;;;9.15;64.87;100131.44;3574675;40;20029;-71
2021/04/16 09:53:21;;;;;;;11.85;7.55;;;;;;;9.10;64.71;100135.97;3576339;40;20111;-72
2021/04/16 09:56:19;;;;;;;13.45;7.60;;;;;;;9.10;64.96;100133.38;3577379;40;20345;-78
2021/04/16 09:59:14;;;;;;;9.70;6.40;;;;;;;9.11;64.95;100128.09;3575494;40;20045;-76
2021/04/16 10:02:22;;;;;;;13.20;8.10;;;;;;;9.22;64.80;100132.97;3571310;40;20140;-77
2021/04/16 10:04:55;;;;;;;11.93;7.45;;;;;;;9.39;64.19;100130.63;3571445;40;21033;-78
2021/04/16 10:07:23;;;;;;;10.30;7.53;;;;;;;9.44;64.26;100130.44;3576716;40;20037;-77
2021/04/16 10:09:50;;;;;;;17.95;10.23;;;;;;;9.45;64.49;100129.53;3575097;40;20104;-78
2021/04/16 10:12:24;;;;;;;21.42;11.60;;;;;;;9.35;64.77;100126.38;3575200;40;20040;-78
2021/04/16 10:14:51;;;;;;;14.52;9.77;;;;;;;9.33;64.93;100132.56;3574937;40;20395;-78
2021/04/16 10:17:20;;;;;;;19.33;9.73;;;;;;;9.38;64.66;100134.16;3577219;40;20073;-77
2021/04/16 10:19:49;;;;;;;17.92;9.20;;;;;;;9.38;64.77;100136.75;3577416;40;20041;-77
2021/04/16 10:22:19;;;;;;;15.02;8.98;;;;;;;9.29;64.90;100126.59;3577239;40;20436;-77
2021/04/16 12:38:04;;;;;;;28.33;15.55;;;;;;;9.16;64.17;100134.03;3594809;40;20129;-74
2021/04/16 12:40:42;;;;;;;29.30;16.98;;;;;;;9.02;64.60;100132.78;3628669;39;765228;-73
2021/04/16 12:43:21;;;;;;;27.15;17.40;;;;;;;8.93;64.63;100128.69;3624800;39;20396;-73
2021/04/16 12:46:01;;;;;;;27.35;15.70;;;;;;;8.94;65.06;100135.63;3626600;39;20394;-73
2021/04/16 12:48:27;;;;;;;30.30;19.15;;;;;;;8.95;64.99;100133.88;3615114;39;20356;-73
2021/04/16 12:50:54;;;;;;;33.05;19.42;;;;;;;8.88;65.42;100133.25;3615251;39;20057;-72
2021/04/16 12:53:32;;;;;;;37.60;27.25;;;;;;;8.86;65.53;100128.06;3615576;39;20401;-72
2021/04/16 12:55:58;;;;;;;33.50;20.80;;;;;;;8.88;65.33;100127.16;3607585;39;20024;-77
2021/04/16 12:58:29;;;;;;;37.25;20.25;;;;;;;8.92;65.57;100121.78;3608123;39;20036;-76
2021/04/16 13:00:57;;;;;;;29.25;19.10;;;;;;;8.84;65.54;100122.03;3606694;39;20035;-76
2021/04/16 13:03:30;;;;;;;36.28;21.05;;;;;;;8.77;65.86;100120.53;3605924;39;20353;-77
2021/04/16 13:06:20;;;;;;;38.15;22.60;;;;;;;8.74;65.83;100120.63;3600796;39;20404;-78
2021/04/16 13:08:58;;;;;;;43.80;23.17;;;;;;;8.75;65.95;100117.13;3625550;39;20693;-77
2021/04/16 13:11:36;;;;;;;48.17;24.38;;;;;;;8.76;66.16;100118.84;3612648;39;20421;-78
2021/04/16 13:14:04;;;;;;;52.83;27.60;;;;;;;8.70;66.27;100113.78;3604770;39;20208;-77
2021/04/16 13:16:31;;;;;;;38.63;22.48;;;;;;;8.57;66.53;100112.50;3604291;39;20027;-78
2021/04/16 13:19:00;;;;;;;44.05;22.67;;;;;;;8.39;67.28;100118.31;3604999;39;20043;-79
2021/04/16 13:21:40;;;;;;;37.85;20.30;;;;;;;8.24;67.70;100114.38;3618207;39;20428;-80
2021/04/16 13:24:17;;;;;;;53.00;28.13;;;;;;;8.22;67.83;100117.03;3616370;39;20402;-79
2021/04/16 13:26:43;;;;;;;55.58;30.08;;;;;;;8.27;67.89;100119.50;3600300;39;20117;-78
2021/04/16 13:29:10;;;;;;;45.08;24.67;;;;;;;8.31;67.74;100115.03;3599554;39;20089;-79
2021/04/16 13:31:36;;;;;;;44.38;25.20;;;;;;;8.42;67.59;100113.84;3598776;39;20031;-77
2021/04/16 13:34:15;;;;;;;52.83;28.65;;;;;;;8.52;67.39;100104.78;3634972;39;921066;-76
2021/04/16 13:36:54;;;;;;;54.80;29.52;;;;;;;8.65;67.25;100105.25;3618990;39;20418;-76
2021/04/16 13:39:22;;;;;;;41.65;23.85;;;;;;;8.67;67.48;100113.88;3612508;39;20036;-78
2021/04/16 13:41:48;;;;;;;37.60;23.08;;;;;;;8.58;67.69;100106.38;3604520;39;20284;-79
2021/04/16 13:44:15;;;;;;;47.22;28.38;;;;;;;8.58;67.91;100114.19;3600972;39;20040;-80
2021/04/16 13:46:42;;;;;;;58.92;34.50;;;;;;;8.63;67.99;100104.44;3605722;39;20032;-75
2021/04/16 13:49:10;;;;;;;32.08;22.25;;;;;;;8.67;68.00;100111.28;3605626;39;20068;-75
2021/04/16 13:51:37;;;;;;;34.55;21.17;;;;;;;8.72;68.21;100108.50;3605741;39;20035;-77
2021/04/16 13:54:17;;;;;;;43.33;26.27;;;;;;;8.83;68.02;100106.41;3555141;40;20671;-77
2021/04/16 13:56:44;;;;;;;38.53;22.92;;;;;;;8.86;67.72;100104.53;3537403;40;20298;-75
2021/04/16 13:59:11;;;;;;;34.47;22.73;;;;;;;8.80;68.15;100114.34;3535462;40;20039;-75
2021/04/16 14:01:49;;;;;;;42.20;24.40;;;;;;;8.64;68.58;100113.13;3602283;39;20403;-77
2021/04/16 14:04:33;;;;;;;54.78;28.45;;;;;;;8.60;68.77;100104.56;3624998;39;20404;-75